Time;durP1;ratioP1;P1;durP2;ratioP2;P2;SDS_P1;SDS_P2;PMS_P1;PMS_P2;Temp;Humidity;BMP_temperature;BMP_pressure;BME280_temperature;BME280_humidity;BME280_pressure;Samples;Min_cycle;Max_cycle;Signal;HPM_P1;HPM_P2
2022/06/19 00:00:01;;;;;;;19.77;5.40;;;;;;;;;;5052546;28;20444;-75
2022/06/19 00:02:29;;;;;;;15.03;3.37;;;;;;;;;;5052677;28;20452;-75
2022/06/19 00:04:57;;;;;;;20.20;4.67;;;;;;;;;;5052255;28;20436;-75
2022/06/19 00:07:25;;;;;;;23.70;5.53;;;;;;;;;;5051989;28;20468;-75
2022/06/19 00:09:52;;;;;;;18.67;4.40;;;;;;;;;;5052444;28;20956;-75
2022/06/19 00:12:20;;;;;;;15.03;3.20;;;;;;;;;;5051792;28;20827;-75
2022/06/19 00:14:48;;;;;;;30.27;6.23;;;;;;;;;;5052022;28;20440;-74
2022/06/19 00:17:16;;;;;;;16.43;4.57;;;;;;;;;;5052121;28;20484;-75
2022/06/19 00:19:43;;;;;;;24.10;5.87;;;;;;;;;;5052398;28;20526;-75
2022/06/19 00:22:12;;;;;;;19.70;4.73;;;;;;;;;;5052246;28;20443;-74
2022/06/19 00:24:40;;;;;;;17.77;4.43;;;;;;;;;;5052416;28;20444;-75
2022/06/19 00:27:07;;;;;;;16.67;3.97;;;;;;;;;;5052322;28;21059;-75
2022/06/19 00:29:35;;;;;;;21.40;4.50;;;;;;;;;;5052325;28;20439;-75
2022/06/19 00:32:07;;;;;;;21.17;4.30;;;;;;;;;;5051971;28;20435;-75
2022/06/19 00:34:35;;;;;;;31.13;5.57;;;;;;;;;;5052135;28;20526;-75
2022/06/19 00:37:03;;;;;;;17.07;4.33;;;;;;;;;;5051703;28;20439;-75
2022/06/19 00:39:39;;;;;;;17.30;3.80;;;;;;;;;;5052013;28;20505;-75
2022/06/19 00:42:06;;;;;;;21.73;5.30;;;;;;;;;;5051912;28;20494;-75
2022/06/19 00:44:34;;;;;;;25.00;5.30;;;;;;;;;;5051793;28;20442;-75
2022/06/19 00:47:07;;;;;;;15.60;3.63;;;;;;;;;;5051587;28;20446;-75
2022/06/19 00:49:36;;;;;;;19.33;3.70;;;;;;;;;;5051691;28;20450;-75
2022/06/19 00:52:06;;;;;;;18.37;4.03;;;;;;;;;;5051629;28;20454;-75
2022/06/19 00:54:37;;;;;;;28.43;5.40;;;;;;;;;;5052032;28;20491;-75
2022/06/19 00:57:05;;;;;;;20.47;4.93;;;;;;;;;;5051453;28;20442;-75
2022/06/19 00:59:33;;;;;;;15.33;3.53;;;;;;;;;;5051552;28;20451;-75
2022/06/19 01:02:01;;;;;;;15.37;3.53;;;;;;;;;;5051600;28;20537;-75
2022/06/19 01:04:32;;;;;;;17.00;4.13;;;;;;;;;;5051989;28;20447;-75
2022/06/19 01:07:00;;;;;;;27.07;5.73;;;;;;;;;;5051383;28;20440;-75
2022/06/19 01:09:27;;;;;;;23.03;3.93;;;;;;;;;;5051523;28;20446;-75
2022/06/19 01:11:56;;;;;;;24.37;4.73;;;;;;;;;;5051457;28;20447;-75
2022/06/19 01:14:25;;;;;;;18.43;4.03;;;;;;;;;;5051261;28;20486;-75
2022/06/19 01:16:52;;;;;;;21.30;4.67;;;;;;;;;;5050937;28;20596;-75
2022/06/19 01:19:25;;;;;;;15.03;3.53;;;;;;;;;;5051537;28;20519;-75
2022/06/19 01:21:57;;;;;;;17.43;3.93;;;;;;;;;;5051672;28;20457;-75
2022/06/19 01:24:30;;;;;;;17.03;3.27;;;;;;;;;;5053499;28;20439;-75
2022/06/19 01:27:01;;;;;;;21.23;4.67;;;;;;;;;;5055443;28;20549;-75
2022/06/19 01:29:28;;;;;;;20.43;4.77;;;;;;;;;;5055429;28;20500;-75
2022/06/19 01:31:57;;;;;;;21.23;4.60;;;;;;;;;;5055007;28;21113;-75
2022/06/19 01:34:31;;;;;;;20.83;4.50;;;;;;;;;;5055257;28;20489;-75
2022/06/19 01:37:02;;;;;;;26.30;5.60;;;;;;;;;;5055056;28;20984;-75
2022/06/19 01:39:31;;;;;;;17.60;3.93;;;;;;;;;;5055964;28;20442;-75
2022/06/19 01:42:01;;;;;;;14.20;2.70;;;;;;;;;;5055303;28;20473;-75
2022/06/19 01:44:29;;;;;;;22.17;4.03;;;;;;;;;;5055176;28;20459;-75
2022/06/19 01:46:56;;;;;;;23.00;5.23;;;;;;;;;;5054924;28;20543;-75
2022/06/19 01:49:24;;;;;;;18.33;4.27;;;;;;;;;;5054986;28;20886;-75
2022/06/19 01:51:52;;;;;;;23.00;4.80;;;;;;;;;;5054911;28;20942;-75
2022/06/19 01:54:23;;;;;;;19.20;3.60;;;;;;;;;;5055034;28;20485;-75
2022/06/19 01:56:51;;;;;;;20.50;5.07;;;;;;;;;;5054839;28;20447;-75
2022/06/19 01:59:20;;;;;;;16.47;4.10;;;;;;;;;;5054852;28;20457;-74
2022/06/19 02:01:49;;;;;;;19.03;4.90;;;;;;;;;;5054843;28;20493;-75
2022/06/19 02:04:16;;;;;;;19.37;4.40;;;;;;;;;;5054761;28;20451;-75
2022/06/19 02:06:45;;;;;;;27.23;4.47;;;;;;;;;;5054515;28;20442;-74
2022/06/19 02:09:14;;;;;;;21.73;4.47;;;;;;;;;;5054835;28;20533;-75
2022/06/19 02:11:43;;;;;;;15.77;4.17;;;;;;;;;;5054707;28;20441;-75
2022/06/19 02:14:11;;;;;;;17.63;3.63;;;;;;;;;;5054436;28;20482;-75
2022/06/19 02:16:41;;;;;;;21.50;4.40;;;;;;;;;;5054371;28;20456;-74
2022/06/19 02:19:08;;;;;;;19.73;4.33;;;;;;;;;;5054747;28;20975;-75
2022/06/19 02:21:37;;;;;;;31.10;4.40;;;;;;;;;;5054756;28;20532;-75
2022/06/19 02:24:05;;;;;;;23.67;5.00;;;;;;;;;;5054532;28;20444;-75
2022/06/19 02:26:33;;;;;;;18.00;3.70;;;;;;;;;;5054461;28;20438;-74
2022/06/19 02:29:01;;;;;;;32.17;6.50;;;;;;;;;;5054087;28;20433;-75
2022/06/19 02:31:28;;;;;;;15.90;3.27;;;;;;;;;;5054764;28;20838;-75
2022/06/19 02:34:00;;;;;;;18.00;3.50;;;;;;;;;;5054683;28;20503;-75
2022/06/19 02:36:38;;;;;;;22.40;3.50;;;;;;;;;;5053671;28;20889;-75
2022/06/19 02:39:26;;;;;;;14.60;3.20;;;;;;;;;;5053882;28;20824;-75
2022/06/19 02:41:56;;;;;;;22.03;4.60;;;;;;;;;;5054178;28;20438;-75
2022/06/19 02:44:31;;;;;;;24.23;5.27;;;;;;;;;;5054303;28;20952;-75
2022/06/19 02:46:59;;;;;;;22.77;4.90;;;;;;;;;;5053959;28;20463;-75
2022/06/19 02:49:27;;;;;;;18.10;3.83;;;;;;;;;;5054200;28;20445;-75
2022/06/19 02:51:55;;;;;;;24.03;4.80;;;;;;;;;;5053806;28;20442;-75
2022/06/19 02:54:22;;;;;;;22.53;4.67;;;;;;;;;;5053849;28;20473;-74
2022/06/19 02:56:50;;;;;;;18.63;4.20;;;;;;;;;;5053581;28;20455;-74
2022/06/19 02:59:17;;;;;;;20.80;4.00;;;;;;;;;;5053846;28;20502;-75
2022/06/19 03:01:45;;;;;;;18.33;3.83;;;;;;;;;;5053848;28;20447;-75
2022/06/19 03:04:16;;;;;;;16.70;4.00;;;;;;;;;;5053473;28;20957;-75
2022/06/19 03:06:45;;;;;;;26.47;3.57;;;;;;;;;;5053384;28;20951;-74
2022/06/19 03:09:12;;;;;;;25.20;5.30;;;;;;;;;;5053468;28;20461;-75
2022/06/19 03:11:40;;;;;;;20.00;4.30;;;;;;;;;;5053643;28;20457;-75
2022/06/19 03:14:07;;;;;;;18.13;4.33;;;;;;;;;;5053382;28;20572;-75
2022/06/19 03:16:35;;;;;;;28.93;4.00;;;;;;;;;;5053265;28;20450;-74
2022/06/19 03:19:02;;;;;;;19.40;3.90;;;;;;;;;;5053002;28;20566;-75
2022/06/19 03:21:30;;;;;;;14.80;3.67;;;;;;;;;;5053348;28;20845;-75
2022/06/19 03:23:59;;;;;;;33.13;4.80;;;;;;;;;;5053354;28;20449;-75
2022/06/19 03:26:27;;;;;;;20.53;4.40;;;;;;;;;;5053350;28;20812;-75
2022/06/19 03:28:54;;;;;;;32.20;7.03;;;;;;;;;;5052941;28;20938;-75
2022/06/19 03:31:23;;;;;;;25.57;6.03;;;;;;;;;;5053233;28;20439;-75
2022/06/19 03:33:50;;;;;;;23.20;5.13;;;;;;;;;;5053146;28;20849;-75
2022/06/19 03:36:19;;;;;;;19.10;4.83;;;;;;;;;;5053157;28;20933;-75
2022/06/19 03:38:46;;;;;;;15.37;3.70;;;;;;;;;;5052867;28;20439;-75
2022/06/19 03:41:15;;;;;;;17.77;4.00;;;;;;;;;;5053265;28;20443;-75
2022/06/19 03:43:43;;;;;;;20.60;4.30;;;;;;;;;;5052942;28;20940;-74
2022/06/19 03:46:16;;;;;;;18.83;4.50;;;;;;;;;;5052861;28;20436;-74
2022/06/19 03:48:44;;;;;;;23.53;4.90;;;;;;;;;;5051809;28;20451;-74
2022/06/19 03:51:12;;;;;;;20.43;5.07;;;;;;;;;;5052861;28;20455;-75
2022/06/19 03:53:40;;;;;;;18.23;4.37;;;;;;;;;;5052813;28;20480;-74
2022/06/19 03:56:08;;;;;;;17.50;3.33;;;;;;;;;;5052680;28;20963;-75
2022/06/19 03:58:46;;;;;;;14.70;3.80;;;;;;;;;;5052609;28;20439;-75
2022/06/19 04:01:14;;;;;;;15.50;3.53;;;;;;;;;;5052591;28;20798;-75
2022/06/19 04:03:42;;;;;;;20.53;4.17;;;;;;;;;;5052611;28;20502;-75
2022/06/19 04:06:10;;;;;;;14.43;3.43;;;;;;;;;;5052627;28;20440;-74
2022/06/19 04:08:37;;;;;;;16.60;4.10;;;;;;;;;;5052341;28;20460;-74
2022/06/19 04:11:06;;;;;;;15.83;3.37;;;;;;;;;;5052450;28;20878;-74
2022/06/19 04:13:34;;;;;;;18.20;4.30;;;;;;;;;;5052496;28;20440;-75
2022/06/19 04:16:04;;;;;;;14.17;3.00;;;;;;;;;;5052523;28;20444;-75
2022/06/19 04:18:32;;;;;;;25.03;5.03;;;;;;;;;;5052344;28;20480;-74
2022/06/19 04:20:59;;;;;;;17.40;4.50;;;;;;;;;;5052031;28;20440;-75
2022/06/19 04:23:27;;;;;;;15.40;3.20;;;;;;;;;;5051848;28;20444;-75
2022/06/19 04:25:54;;;;;;;15.93;3.40;;;;;;;;;;5052110;28;20440;-75
2022/06/19 04:28:24;;;;;;;21.30;3.97;;;;;;;;;;5052369;28;20436;-75
2022/06/19 04:30:52;;;;;;;29.43;5.73;;;;;;;;;;5051853;28;20532;-75
2022/06/19 04:33:21;;;;;;;15.73;3.80;;;;;;;;;;5052041;28;20480;-75
2022/06/19 04:35:49;;;;;;;15.67;3.50;;;;;;;;;;5051965;28;20448;-75
2022/06/19 04:38:17;;;;;;;16.73;3.03;;;;;;;;;;5052166;28;20462;-76
2022/06/19 04:40:45;;;;;;;16.27;3.53;;;;;;;;;;5051632;28;20532;-75
2022/06/19 04:43:13;;;;;;;16.40;3.47;;;;;;;;;;5051837;28;20447;-75
2022/06/19 04:45:41;;;;;;;16.63;4.20;;;;;;;;;;5050894;28;20452;-72
2022/06/19 04:48:10;;;;;;;17.43;4.10;;;;;;;;;;5049591;28;20485;-74
2022/06/19 04:50:39;;;;;;;18.00;3.90;;;;;;;;;;5050446;28;20536;-74
2022/06/19 04:53:06;;;;;;;16.67;3.90;;;;;;;;;;5050257;28;20474;-74
2022/06/19 04:55:33;;;;;;;15.70;3.83;;;;;;;;;;5050619;28;20504;-75
2022/06/19 04:58:02;;;;;;;15.23;3.83;;;;;;;;;;5050499;28;20482;-74
2022/06/19 05:00:29;;;;;;;17.50;3.50;;;;;;;;;;5050744;28;21085;-75
2022/06/19 05:02:57;;;;;;;18.50;4.60;;;;;;;;;;5050427;28;20541;-76
2022/06/19 05:05:25;;;;;;;19.73;5.00;;;;;;;;;;5051264;28;20472;-77
2022/06/19 05:07:54;;;;;;;20.30;3.33;;;;;;;;;;5050464;28;20471;-76
2022/06/19 05:10:21;;;;;;;14.17;3.17;;;;;;;;;;5051316;28;20479;-76
2022/06/19 05:12:49;;;;;;;19.50;4.70;;;;;;;;;;5051154;28;20566;-74
2022/06/19 05:15:16;;;;;;;15.23;3.47;;;;;;;;;;5050972;28;20923;-75
2022/06/19 05:17:44;;;;;;;15.23;3.43;;;;;;;;;;5051059;28;20483;-75
2022/06/19 05:20:14;;;;;;;14.00;3.60;;;;;;;;;;5050996;28;20767;-76
2022/06/19 05:22:41;;;;;;;15.13;3.50;;;;;;;;;;5050483;28;20853;-76
2022/06/19 05:25:11;;;;;;;17.73;5.07;;;;;;;;;;5050863;28;20479;-78
2022/06/19 05:27:38;;;;;;;17.03;3.20;;;;;;;;;;5050675;28;20475;-76
2022/06/19 05:30:07;;;;;;;18.50;4.60;;;;;;;;;;5050755;28;20460;-77
2022/06/19 05:32:34;;;;;;;17.37;4.10;;;;;;;;;;5050771;28;20476;-76
2022/06/19 05:35:02;;;;;;;18.60;4.67;;;;;;;;;;5050320;28;20503;-75
2022/06/19 05:37:30;;;;;;;15.83;3.80;;;;;;;;;;5050437;28;20480;-74
2022/06/19 05:39:58;;;;;;;16.60;3.70;;;;;;;;;;5050740;28;20929;-74
2022/06/19 05:42:27;;;;;;;20.03;4.70;;;;;;;;;;5050393;28;20479;-75
2022/06/19 05:44:54;;;;;;;22.73;5.20;;;;;;;;;;5050493;28;20472;-74
2022/06/19 05:47:22;;;;;;;17.40;4.10;;;;;;;;;;5038578;28;20467;-74
2022/06/19 05:49:49;;;;;;;14.93;4.33;;;;;;;;;;5050555;28;20460;-76
2022/06/19 05:52:18;;;;;;;15.60;4.17;;;;;;;;;;5049901;28;21027;-74
2022/06/19 05:54:47;;;;;;;17.03;4.60;;;;;;;;;;5050113;28;20495;-75
2022/06/19 05:57:15;;;;;;;18.63;4.90;;;;;;;;;;5050140;28;20853;-74
2022/06/19 05:59:44;;;;;;;14.80;4.30;;;;;;;;;;5050657;28;20462;-75
2022/06/19 06:02:12;;;;;;;17.00;4.40;;;;;;;;;;5050563;28;20498;-73
2022/06/19 06:04:39;;;;;;;16.10;4.13;;;;;;;;;;5050758;28;20476;-73
2022/06/19 06:07:07;;;;;;;16.13;4.50;;;;;;;;;;5049870;28;20468;-72
2022/06/19 06:09:35;;;;;;;17.60;3.80;;;;;;;;;;5050337;28;20937;-73
2022/06/19 06:12:03;;;;;;;17.53;4.30;;;;;;;;;;5053233;28;20470;-75
2022/06/19 06:14:33;;;;;;;27.50;6.30;;;;;;;;;;5054361;28;20503;-72
2022/06/19 06:17:02;;;;;;;19.10;5.17;;;;;;;;;;5053718;28;20483;-72
2022/06/19 06:19:29;;;;;;;24.30;5.40;;;;;;;;;;5054050;28;21102;-72
2022/06/19 06:21:56;;;;;;;17.17;4.27;;;;;;;;;;5053558;28;20816;-73
2022/06/19 06:24:24;;;;;;;17.80;4.80;;;;;;;;;;5053850;28;21035;-73
2022/06/19 06:26:51;;;;;;;21.50;5.70;;;;;;;;;;5053692;28;20467;-71
2022/06/19 06:29:20;;;;;;;17.03;5.03;;;;;;;;;;5053754;28;20546;-73
2022/06/19 06:31:48;;;;;;;23.03;4.63;;;;;;;;;;5053762;28;20478;-70
2022/06/19 06:34:17;;;;;;;16.70;4.90;;;;;;;;;;5053707;28;21021;-70
2022/06/19 06:36:44;;;;;;;15.73;4.60;;;;;;;;;;5052860;28;20471;-71
2022/06/19 06:39:12;;;;;;;14.20;4.23;;;;;;;;;;5053875;28;20474;-72
2022/06/19 06:41:39;;;;;;;21.53;6.40;;;;;;;;;;5053058;28;20475;-72
2022/06/19 06:44:06;;;;;;;17.60;5.83;;;;;;;;;;5053353;28;20470;-74
2022/06/19 06:46:35;;;;;;;16.97;4.70;;;;;;;;;;5052998;28;20570;-74
2022/06/19 06:49:04;;;;;;;16.23;5.30;;;;;;;;;;5053165;28;20479;-73
2022/06/19 06:51:33;;;;;;;16.73;4.47;;;;;;;;;;5052736;28;20507;-74
2022/06/19 06:54:01;;;;;;;17.37;5.20;;;;;;;;;;5053279;28;20459;-74
2022/06/19 06:56:31;;;;;;;19.80;5.57;;;;;;;;;;5053062;28;20503;-73
2022/06/19 06:58:59;;;;;;;18.27;5.50;;;;;;;;;;5051563;28;20521;-74
2022/06/19 07:01:26;;;;;;;16.80;5.07;;;;;;;;;;5051418;28;20863;-73
2022/06/19 07:03:55;;;;;;;17.07;5.53;;;;;;;;;;5053141;28;20468;-73
2022/06/19 07:06:23;;;;;;;16.97;4.80;;;;;;;;;;5052930;28;20475;-74
2022/06/19 07:08:52;;;;;;;23.67;7.20;;;;;;;;;;5052813;28;20463;-74
2022/06/19 07:11:22;;;;;;;17.63;5.40;;;;;;;;;;5053327;28;20551;-74
2022/06/19 07:13:49;;;;;;;19.17;6.37;;;;;;;;;;5053238;28;20525;-74
2022/06/19 07:16:17;;;;;;;18.67;5.87;;;;;;;;;;5052851;28;20503;-73
2022/06/19 07:18:44;;;;;;;17.80;6.03;;;;;;;;;;5052952;28;20479;-74
2022/06/19 07:21:13;;;;;;;15.83;5.20;;;;;;;;;;5052455;28;20475;-74
2022/06/19 07:23:41;;;;;;;17.27;5.07;;;;;;;;;;5053082;28;20555;-73
2022/06/19 07:26:11;;;;;;;16.40;4.20;;;;;;;;;;5053002;28;20476;-74
2022/06/19 07:28:39;;;;;;;16.20;4.20;;;;;;;;;;5052821;28;20479;-74
2022/06/19 07:31:07;;;;;;;16.10;4.27;;;;;;;;;;5052585;28;20562;-74
2022/06/19 07:33:34;;;;;;;15.80;3.33;;;;;;;;;;5053023;28;20474;-74
2022/06/19 07:36:02;;;;;;;27.27;5.63;;;;;;;;;;5052390;28;20516;-74
2022/06/19 07:38:30;;;;;;;14.27;3.27;;;;;;;;;;5052723;28;20475;-74
2022/06/19 07:40:57;;;;;;;18.60;4.50;;;;;;;;;;5052533;28;20487;-75
2022/06/19 07:43:27;;;;;;;18.07;4.30;;;;;;;;;;5052404;28;20467;-73
2022/06/19 07:45:55;;;;;;;18.80;4.87;;;;;;;;;;5053082;28;20467;-74
2022/06/19 07:51:08;;;;;;;18.97;4.30;;;;;;;;;;5052012;28;20532;-74
2022/06/19 07:53:36;;;;;;;20.87;4.13;;;;;;;;;;5052395;28;20463;-73
2022/06/19 07:56:03;;;;;;;14.83;2.97;;;;;;;;;;5052086;28;20582;-75
2022/06/19 07:58:32;;;;;;;15.37;3.50;;;;;;;;;;5052065;28;20467;-74
2022/06/19 08:01:00;;;;;;;19.77;4.77;;;;;;;;;;5052103;28;20467;-74
2022/06/19 08:03:28;;;;;;;16.03;3.67;;;;;;;;;;5052249;28;20459;-73
2022/06/19 08:05:55;;;;;;;17.10;3.67;;;;;;;;;;5051659;28;20863;-72
2022/06/19 08:08:24;;;;;;;19.83;4.20;;;;;;;;;;5051581;28;20479;-73
2022/06/19 08:10:55;;;;;;;26.73;5.40;;;;;;;;;;5051833;28;20839;-72
2022/06/19 08:13:23;;;;;;;14.67;2.87;;;;;;;;;;5052067;28;20514;-72
2022/06/19 08:15:53;;;;;;;17.63;3.63;;;;;;;;;;5051953;28;20586;-73
2022/06/19 08:18:21;;;;;;;16.73;3.83;;;;;;;;;;5051931;28;20550;-73
2022/06/19 08:20:49;;;;;;;22.37;5.40;;;;;;;;;;5050795;28;20468;-73
2022/06/19 08:23:17;;;;;;;13.13;2.60;;;;;;;;;;5052142;28;20471;-73
2022/06/19 08:25:45;;;;;;;14.90;2.93;;;;;;;;;;5051748;28;20460;-73
2022/06/19 08:28:14;;;;;;;18.27;3.97;;;;;;;;;;5051758;28;20476;-72
2022/06/19 08:30:42;;;;;;;16.00;3.90;;;;;;;;;;5051638;28;20475;-72
2022/06/19 08:33:12;;;;;;;15.13;3.30;;;;;;;;;;5051298;28;21050;-74
2022/06/19 08:35:42;;;;;;;19.40;3.87;;;;;;;;;;5050619;28;20624;-74
2022/06/19 08:38:11;;;;;;;21.13;3.67;;;;;;;;;;5051662;28;20460;-74
2022/06/19 08:40:44;;;;;;;14.90;2.80;;;;;;;;;;5051102;28;20467;-74
2022/06/19 08:43:20;;;;;;;18.03;3.27;;;;;;;;;;5050813;28;20464;-74
2022/06/19 08:45:54;;;;;;;20.37;3.60;;;;;;;;;;5051037;28;20482;-74
2022/06/19 08:48:36;;;;;;;18.27;4.57;;;;;;;;;;5051121;28;20469;-73
2022/06/19 08:51:10;;;;;;;14.43;3.10;;;;;;;;;;5039003;28;21023;-74
2022/06/19 08:53:51;;;;;;;13.57;2.73;;;;;;;;;;5051676;28;20463;-74
2022/06/19 08:56:20;;;;;;;17.60;4.03;;;;;;;;;;5051234;28;20507;-73
2022/06/19 08:58:52;;;;;;;17.23;3.80;;;;;;;;;;5031257;28;21017;-74
2022/06/19 09:01:26;;;;;;;16.57;3.50;;;;;;;;;;5031441;28;20481;-72
2022/06/19 09:06:49;;;;;;;14.87;3.13;;;;;;;;;;5030989;28;20480;-74
2022/06/19 09:09:23;;;;;;;25.07;5.43;;;;;;;;;;5030948;28;20456;-74
2022/06/19 09:12:01;;;;;;;15.87;3.47;;;;;;;;;;5031473;28;20471;-76
2022/06/19 09:14:35;;;;;;;17.03;4.03;;;;;;;;;;5031141;28;20471;-74
2022/06/19 09:17:08;;;;;;;15.80;3.07;;;;;;;;;;5030755;28;20504;-75
2022/06/19 09:19:39;;;;;;;16.90;3.30;;;;;;;;;;5030458;28;20914;-76
2022/06/19 09:22:12;;;;;;;16.23;2.33;;;;;;;;;;5031034;28;20546;-76
2022/06/19 09:24:47;;;;;;;16.90;3.57;;;;;;;;;;5031292;28;20456;-85
2022/06/19 09:27:16;;;;;;;17.40;3.60;;;;;;;;;;5038607;28;20567;-83
2022/06/19 09:29:46;;;;;;;17.03;3.17;;;;;;;;;;5050771;28;20467;-79
2022/06/19 09:32:18;;;;;;;15.70;3.00;;;;;;;;;;5051233;28;20479;-76
2022/06/19 09:34:47;;;;;;;13.93;2.90;;;;;;;;;;5050141;28;20456;-86
2022/06/19 09:37:19;;;;;;;14.60;2.90;;;;;;;;;;5051214;28;20513;-82
2022/06/19 09:39:49;;;;;;;14.87;2.83;;;;;;;;;;5051235;28;21038;-81
2022/06/19 09:42:18;;;;;;;12.70;1.90;;;;;;;;;;5052274;28;20502;-81
2022/06/19 09:44:50;;;;;;;17.70;3.80;;;;;;;;;;5051425;28;20474;-76
2022/06/19 09:47:22;;;;;;;15.53;3.27;;;;;;;;;;5055230;28;20479;-84
2022/06/19 09:49:52;;;;;;;15.13;2.63;;;;;;;;;;5055939;28;20463;-81
2022/06/19 09:52:25;;;;;;;17.00;3.43;;;;;;;;;;5057074;28;20475;-79
2022/06/19 09:54:54;;;;;;;19.53;3.80;;;;;;;;;;5056246;28;20467;-83
2022/06/19 09:57:24;;;;;;;15.73;2.93;;;;;;;;;;5055566;28;20501;-82
2022/06/19 09:59:54;;;;;;;17.00;3.50;;;;;;;;;;5057710;28;20464;-88
2022/06/19 10:02:25;;;;;;;18.63;3.80;;;;;;;;;;5055800;28;20471;-85
2022/06/19 10:04:56;;;;;;;16.23;3.27;;;;;;;;;;5053970;28;20463;-83
2022/06/19 10:07:27;;;;;;;18.47;3.57;;;;;;;;;;5057617;28;20541;-87
2022/06/19 10:09:55;;;;;;;15.10;2.53;;;;;;;;;;5055811;28;20470;-81
2022/06/19 10:12:27;;;;;;;14.90;2.47;;;;;;;;;;5054452;28;21029;-76
2022/06/19 10:14:56;;;;;;;14.60;2.83;;;;;;;;;;5054160;28;21011;-78
2022/06/19 10:17:26;;;;;;;16.50;3.43;;;;;;;;;;5053499;28;20499;-76
2022/06/19 10:19:55;;;;;;;13.80;2.60;;;;;;;;;;5054106;28;20474;-79
2022/06/19 10:22:31;;;;;;;18.73;4.00;;;;;;;;;;5054046;28;20481;-76
2022/06/19 10:25:04;;;;;;;18.97;4.13;;;;;;;;;;5053992;28;20478;-76
2022/06/19 10:27:35;;;;;;;18.50;3.60;;;;;;;;;;5053085;28;20486;-76
2022/06/19 10:30:05;;;;;;;13.90;2.40;;;;;;;;;;5044704;28;20483;-75
2022/06/19 10:32:42;;;;;;;15.17;3.20;;;;;;;;;;5053965;28;20446;-76
2022/06/19 10:35:15;;;;;;;17.03;3.43;;;;;;;;;;5053926;28;20795;-76
2022/06/19 10:37:46;;;;;;;13.63;2.37;;;;;;;;;;5054442;28;20443;-76
2022/06/19 10:40:19;;;;;;;13.00;2.20;;;;;;;;;;5054424;28;20446;-76
2022/06/19 10:42:51;;;;;;;14.33;2.93;;;;;;;;;;5054107;28;20450;-76
2022/06/19 10:45:28;;;;;;;15.10;2.87;;;;;;;;;;5054496;28;20454;-76
2022/06/19 10:48:06;;;;;;;13.10;2.07;;;;;;;;;;5054402;28;20440;-76
2022/06/19 10:50:37;;;;;;;13.60;2.37;;;;;;;;;;5054264;28;20877;-75
2022/06/19 10:53:13;;;;;;;15.50;3.17;;;;;;;;;;5054214;28;20444;-75
2022/06/19 10:55:43;;;;;;;13.50;2.47;;;;;;;;;;5054550;28;20927;-75
2022/06/19 10:58:15;;;;;;;13.20;2.40;;;;;;;;;;5054016;28;20448;-80
2022/06/19 11:00:43;;;;;;;11.67;1.80;;;;;;;;;;5053814;28;20442;-74
2022/06/19 11:06:03;;;;;;;14.30;2.30;;;;;;;;;;5054015;28;20430;-74
2022/06/19 11:08:35;;;;;;;12.83;2.20;;;;;;;;;;5053702;28;20987;-76
2022/06/19 11:11:03;;;;;;;12.23;2.10;;;;;;;;;;5053940;28;20447;-77
2022/06/19 11:13:49;;;;;;;14.90;2.33;;;;;;;;;;5053868;28;20442;-76
2022/06/19 11:16:17;;;;;;;14.07;2.23;;;;;;;;;;5053685;28;20514;-74
2022/06/19 11:18:46;;;;;;;14.57;2.27;;;;;;;;;;5053685;28;20497;-75
2022/06/19 11:21:15;;;;;;;16.80;2.30;;;;;;;;;;5053701;28;20435;-76
2022/06/19 11:23:53;;;;;;;13.40;2.30;;;;;;;;;;5053815;28;20446;-81
2022/06/19 11:26:22;;;;;;;19.93;4.50;;;;;;;;;;5042339;28;20476;-75
